createdAt,value
2022-11-05T00:02:39.571Z,7.93
2022-11-05T00:05:30.732Z,6.68
2022-11-05T00:08:21.525Z,7.20
2022-11-05T00:10:54.295Z,5.60
2022-11-05T00:13:44.276Z,5.95
2022-11-05T00:16:34.192Z,7.05
2022-11-05T00:19:11.317Z,6.32
2022-11-05T00:21:59.780Z,4.72
2022-11-05T00:24:48.419Z,6.10
2022-11-05T00:27:19.667Z,5.25
2022-11-05T00:29:52.473Z,5.20
2022-11-05T00:32:26.293Z,5.22
2022-11-05T00:34:57.474Z,5.57
2022-11-05T00:37:30.777Z,6.00
2022-11-05T00:40:02.282Z,6.28
2022-11-05T00:42:54.529Z,5.50
2022-11-05T00:45:26.455Z,4.68
2022-11-05T00:48:16.317Z,4.37
2022-11-05T00:50:45.839Z,8.00
2022-11-05T00:53:15.731Z,5.55
2022-11-05T00:55:47.393Z,5.97
2022-11-05T00:58:22.986Z,5.45
2022-11-05T01:00:55.201Z,5.05
2022-11-05T01:03:32.256Z,6.85
2022-11-05T01:06:16.874Z,5.32
2022-11-05T01:08:48.253Z,5.15
2022-11-05T01:11:37.490Z,4.93
2022-11-05T01:14:11.271Z,4.85
2022-11-05T01:16:42.406Z,6.20
2022-11-05T01:19:18.014Z,5.43
2022-11-05T01:21:47.564Z,5.68
2022-11-05T01:24:17.917Z,8.00
2022-11-05T01:26:50.699Z,5.65
2022-11-05T01:29:22.459Z,4.68
2022-11-05T01:31:51.584Z,6.80
2022-11-05T01:36:54.720Z,5.18
2022-11-05T01:39:28.142Z,5.60
2022-11-05T01:41:59.280Z,5.10
2022-11-05T01:45:03.488Z,4.25
2022-11-05T01:47:49.151Z,4.28
2022-11-05T01:50:28.282Z,4.70
2022-11-05T01:53:04.222Z,5.32
2022-11-05T01:55:39.039Z,7.72
2022-11-05T01:58:12.257Z,5.00
2022-11-05T02:00:44.501Z,5.47
2022-11-05T02:03:15.960Z,5.87
2022-11-05T02:05:48.526Z,4.90
2022-11-05T02:08:43.835Z,5.47
2022-11-05T02:11:18.614Z,5.45
2022-11-05T02:13:51.747Z,5.03
2022-11-05T02:16:38.157Z,5.30
2022-11-05T02:21:56.583Z,5.82
2022-11-05T02:24:54.378Z,5.70
2022-11-05T02:27:39.938Z,5.28
2022-11-05T02:30:24.329Z,5.82
2022-11-05T02:33:11.773Z,5.30
2022-11-05T02:36:05.424Z,5.20
2022-11-05T02:39:00.207Z,6.12
2022-11-05T02:41:47.725Z,4.97
2022-11-05T02:44:32.742Z,5.45
2022-11-05T02:47:25.444Z,4.78
2022-11-05T02:50:24.262Z,6.87
2022-11-05T02:53:01.763Z,5.57
2022-11-05T02:55:38.082Z,5.78
2022-11-05T02:58:08.604Z,5.30
2022-11-05T03:03:24.178Z,4.75
2022-11-05T03:06:28.808Z,5.82
2022-11-05T03:09:23.074Z,4.85
2022-11-05T03:12:05.747Z,4.90
2022-11-05T03:17:16.790Z,4.57
2022-11-05T03:19:55.383Z,5.05
2022-11-05T03:22:33.510Z,5.07
2022-11-05T03:25:08.025Z,5.85
2022-11-05T03:27:40.877Z,6.07
2022-11-05T03:30:13.508Z,5.05
2022-11-05T03:32:50.375Z,4.78
2022-11-05T03:35:40.740Z,4.32
2022-11-05T03:38:20.343Z,4.82
2022-11-05T03:40:53.611Z,4.18
2022-11-05T03:43:28.104Z,4.55
2022-11-05T03:46:01.399Z,4.30
2022-11-05T03:48:37.204Z,3.78
2022-11-05T03:51:29.990Z,5.85
2022-11-05T03:54:04.730Z,6.00
2022-11-05T03:56:46.077Z,5.37
2022-11-05T03:59:18.473Z,4.15
2022-11-05T04:01:48.442Z,4.57
2022-11-05T04:04:19.061Z,4.25
2022-11-05T04:07:07.342Z,5.55
2022-11-05T04:09:56.792Z,5.80
2022-11-05T04:12:45.639Z,5.45
2022-11-05T04:15:17.281Z,5.03
2022-11-05T04:17:46.145Z,4.97
2022-11-05T04:20:36.518Z,5.15
2022-11-05T04:23:26.428Z,5.12
2022-11-05T04:25:57.849Z,5.50
2022-11-05T04:28:47.485Z,5.62
2022-11-05T04:31:17.999Z,5.55
2022-11-05T04:33:49.137Z,5.95
2022-11-05T04:36:20.488Z,6.10
2022-11-05T04:38:51.029Z,6.60
2022-11-05T04:41:22.323Z,5.32
2022-11-05T04:43:51.958Z,7.72
2022-11-05T04:46:23.375Z,6.25
2022-11-05T04:48:54.221Z,6.55
2022-11-05T04:51:25.083Z,5.80
2022-11-05T04:53:55.878Z,4.90
2022-11-05T04:56:27.293Z,5.93
2022-11-05T04:58:57.056Z,5.30
2022-11-05T05:01:28.540Z,5.62
2022-11-05T05:06:31.215Z,7.20
2022-11-05T05:09:01.633Z,5.53
2022-11-05T05:11:32.703Z,5.43
2022-11-05T05:14:03.184Z,5.37
2022-11-05T05:16:35.511Z,5.85
2022-11-05T05:19:05.800Z,5.57
2022-11-05T05:21:39.356Z,4.80
2022-11-05T05:24:11.363Z,5.20
2022-11-05T05:26:44.616Z,4.55
2022-11-05T05:31:44.931Z,4.95
2022-11-05T05:34:15.968Z,4.83
2022-11-05T05:36:48.400Z,5.55
2022-11-05T05:39:19.708Z,6.30
2022-11-05T05:41:51.807Z,5.47
2022-11-05T05:44:22.159Z,4.55
2022-11-05T05:46:57.831Z,4.80
2022-11-05T05:49:27.860Z,5.07
2022-11-05T05:51:59.488Z,5.22
2022-11-05T05:54:32.695Z,3.90
2022-11-05T05:57:03.180Z,4.57
2022-11-05T05:59:52.743Z,5.45
2022-11-05T06:02:23.854Z,6.07
2022-11-05T06:04:53.757Z,5.05
2022-11-05T06:07:26.220Z,4.40
2022-11-05T06:09:56.060Z,4.28
2022-11-05T06:12:25.353Z,4.40
2022-11-05T06:14:55.510Z,5.82
2022-11-05T06:17:26.973Z,4.65
2022-11-05T06:19:57.762Z,5.55
2022-11-05T06:22:29.735Z,4.55
2022-11-05T06:24:59.516Z,4.90
2022-11-05T06:27:31.075Z,4.65
2022-11-05T06:30:01.218Z,3.95
2022-11-05T06:32:31.875Z,3.85
2022-11-05T06:35:02.861Z,4.62
2022-11-05T06:37:35.571Z,4.78
2022-11-05T06:40:07.365Z,4.80
2022-11-05T06:42:37.967Z,3.92
2022-11-05T06:45:08.296Z,4.43
2022-11-05T06:47:39.620Z,4.40
2022-11-05T06:50:10.568Z,5.37
2022-11-05T06:52:41.486Z,4.15
2022-11-05T06:55:11.804Z,4.15
2022-11-05T06:57:42.887Z,4.37
2022-11-05T07:00:12.376Z,5.37
2022-11-05T07:02:42.290Z,4.87
2022-11-05T07:05:11.841Z,5.00
2022-11-05T07:07:42.519Z,5.12
2022-11-05T07:10:17.802Z,4.32
2022-11-05T07:12:49.560Z,5.40
2022-11-05T07:15:22.882Z,4.93
2022-11-05T07:17:59.358Z,3.50
2022-11-05T07:20:34.287Z,4.37
2022-11-05T07:23:11.441Z,4.15
2022-11-05T07:25:48.615Z,4.10
2022-11-05T07:28:18.158Z,3.53
2022-11-05T07:30:49.554Z,4.53
2022-11-05T07:33:19.448Z,3.67
2022-11-05T07:35:50.205Z,4.35
2022-11-05T07:38:21.038Z,3.78
2022-11-05T07:40:54.009Z,3.40
2022-11-05T07:43:23.792Z,3.53
2022-11-05T07:45:54.147Z,3.58
2022-11-05T07:48:23.213Z,4.45
2022-11-05T07:50:56.835Z,4.40
2022-11-05T07:53:26.935Z,2.35
2022-11-05T07:56:00.100Z,3.03
2022-11-05T08:01:02.089Z,3.65
2022-11-05T08:03:34.416Z,3.03
2022-11-05T08:06:07.713Z,5.07
2022-11-05T08:08:39.972Z,3.08
2022-11-05T08:11:10.961Z,3.12
2022-11-05T08:13:43.383Z,18.33
2022-11-05T08:16:13.294Z,24.05
2022-11-05T08:18:45.310Z,29.42
2022-11-05T08:21:14.860Z,6.13
2022-11-05T08:23:45.985Z,6.00
2022-11-05T08:26:15.664Z,4.12
2022-11-05T08:28:46.573Z,4.45
2022-11-05T08:31:18.438Z,3.37
2022-11-05T08:33:51.462Z,3.90
2022-11-05T08:36:21.735Z,5.35
2022-11-05T08:38:55.628Z,4.72
2022-11-05T08:41:25.745Z,4.72
2022-11-05T08:43:57.426Z,3.78
2022-11-05T08:46:27.971Z,3.42
2022-11-05T08:49:00.454Z,4.72
2022-11-05T08:51:30.760Z,4.30
2022-11-05T08:54:02.556Z,3.47
2022-11-05T08:56:32.758Z,4.05
2022-11-05T08:59:03.600Z,3.97
2022-11-05T09:01:34.001Z,4.65
2022-11-05T09:04:05.732Z,3.47
2022-11-05T09:06:36.425Z,3.22
2022-11-05T09:09:09.573Z,4.90
2022-11-05T09:12:05.672Z,6.57
2022-11-05T09:14:30.464Z,5.80
2022-11-05T09:16:59.595Z,4.07
2022-11-05T09:19:31.487Z,6.30
2022-11-05T09:22:01.341Z,6.97
2022-11-05T09:24:31.279Z,4.12
2022-11-05T09:27:01.125Z,4.50
2022-11-05T09:29:32.209Z,3.95
2022-11-05T09:32:01.912Z,5.22
2022-11-05T09:34:33.241Z,4.80
2022-11-05T09:39:34.267Z,4.70
2022-11-05T09:42:08.150Z,6.03
2022-11-05T09:44:41.886Z,5.50
2022-11-05T09:47:19.190Z,5.07
2022-11-05T09:49:53.865Z,6.10
2022-11-05T09:52:30.510Z,4.95
2022-11-05T09:55:02.155Z,4.90
2022-11-05T09:57:41.493Z,4.68
2022-11-05T10:00:17.368Z,5.25
2022-11-05T10:03:00.075Z,5.57
2022-11-05T10:08:19.452Z,5.07
2022-11-05T10:10:49.538Z,6.00
2022-11-05T10:13:45.138Z,5.07
2022-11-05T10:16:28.314Z,4.87
2022-11-05T10:19:06.885Z,7.62
2022-11-05T10:22:04.744Z,4.87
2022-11-05T10:24:28.915Z,4.62
2022-11-05T10:26:58.751Z,5.18
2022-11-05T10:29:34.320Z,4.95
2022-11-05T10:32:06.300Z,5.47
2022-11-05T10:34:39.451Z,5.35
2022-11-05T10:37:10.933Z,4.55
2022-11-05T10:39:41.488Z,6.30
2022-11-05T10:42:39.411Z,4.78
2022-11-05T10:45:21.856Z,7.03
2022-11-05T10:48:10.931Z,4.93
2022-11-05T10:50:42.858Z,4.97
2022-11-05T10:53:17.006Z,5.47
2022-11-05T10:55:50.018Z,4.85
2022-11-05T10:58:27.948Z,5.25
2022-11-05T11:01:00.794Z,5.22
2022-11-05T11:03:35.499Z,4.50
2022-11-05T11:06:30.030Z,4.97
2022-11-05T11:09:03.258Z,5.55
2022-11-05T11:11:37.394Z,5.90
2022-11-05T11:14:21.518Z,5.10
2022-11-05T11:16:58.058Z,4.85
2022-11-05T11:19:33.814Z,5.20
2022-11-05T11:22:03.634Z,6.25
2022-11-05T11:24:54.097Z,5.53
2022-11-05T11:27:30.397Z,4.95
2022-11-05T11:30:00.357Z,8.00
2022-11-05T11:32:40.073Z,5.65
2022-11-05T11:35:22.788Z,6.10
2022-11-05T11:37:56.164Z,5.55
2022-11-05T11:40:32.430Z,4.78
2022-11-05T11:43:05.359Z,5.03
2022-11-05T11:45:48.885Z,4.93
2022-11-05T11:48:20.109Z,5.45
2022-11-05T11:50:48.905Z,4.95
2022-11-05T11:53:20.179Z,7.65
2022-11-05T11:56:03.613Z,4.72
2022-11-05T11:58:54.008Z,5.32
2022-11-05T12:01:48.171Z,4.65
2022-11-05T12:04:58.404Z,5.30
2022-11-05T12:07:26.572Z,4.03
2022-11-05T12:10:21.881Z,4.85
2022-11-05T12:13:23.819Z,6.12
2022-11-05T12:15:57.107Z,5.10
2022-11-05T12:18:51.092Z,4.65
2022-11-05T12:21:52.133Z,5.68
2022-11-05T12:24:30.049Z,4.68
2022-11-05T12:27:21.806Z,5.68
2022-11-05T12:30:09.072Z,3.47
2022-11-05T12:32:47.629Z,4.15
2022-11-05T12:35:49.830Z,5.65
2022-11-05T12:38:42.515Z,5.43
2022-11-05T12:41:34.336Z,4.25
2022-11-05T12:44:24.912Z,3.72
2022-11-05T12:47:06.591Z,5.32
2022-11-05T12:49:51.913Z,4.30
2022-11-05T12:52:28.268Z,5.30
2022-11-05T12:55:05.947Z,3.72
2022-11-05T12:57:37.853Z,5.40
2022-11-05T13:00:26.250Z,6.10
2022-11-05T13:03:11.111Z,3.97
2022-11-05T13:06:13.859Z,4.32
2022-11-05T13:08:52.429Z,4.60
2022-11-05T13:11:26.673Z,3.55
2022-11-05T13:14:13.637Z,3.53
2022-11-05T13:16:59.129Z,3.72
2022-11-05T13:19:35.107Z,6.22
2022-11-05T13:22:20.207Z,3.47
2022-11-05T13:24:58.037Z,3.22
2022-11-05T13:27:52.777Z,3.78
2022-11-05T13:30:24.747Z,3.60
2022-11-05T13:33:03.949Z,3.10
2022-11-05T13:35:42.422Z,3.25
2022-11-05T13:38:42.087Z,2.70
2022-11-05T13:41:28.663Z,2.97
2022-11-05T13:44:01.784Z,3.90
2022-11-05T13:46:48.226Z,2.80
2022-11-05T13:49:39.775Z,3.35
2022-11-05T13:52:11.663Z,3.95
2022-11-05T13:54:49.843Z,3.12
2022-11-05T13:57:39.217Z,3.87
2022-11-05T14:00:22.723Z,3.17
2022-11-05T14:02:55.168Z,3.75
2022-11-05T14:05:43.629Z,5.15
2022-11-05T14:08:21.475Z,3.83
2022-11-05T14:11:02.913Z,4.40
2022-11-05T14:13:42.573Z,3.53
2022-11-05T14:16:19.434Z,6.00
2022-11-05T14:19:19.632Z,3.42
2022-11-05T14:21:52.308Z,3.78
2022-11-05T14:24:26.967Z,4.95
2022-11-05T14:27:21.310Z,4.62
2022-11-05T14:29:50.264Z,4.82
2022-11-05T14:32:18.664Z,4.80
2022-11-05T14:35:04.069Z,4.35
2022-11-05T14:37:37.250Z,4.53
2022-11-05T14:40:45.001Z,5.47
2022-11-05T14:43:14.262Z,5.35
2022-11-05T14:46:04.228Z,5.32
2022-11-05T14:48:42.375Z,5.95
2022-11-05T14:51:31.238Z,5.47
2022-11-05T14:54:02.992Z,4.45
2022-11-05T14:56:46.025Z,5.05
2022-11-05T14:59:25.241Z,4.45
2022-11-05T15:02:17.097Z,5.80
2022-11-05T15:04:47.899Z,6.20
2022-11-05T15:07:22.501Z,5.07
2022-11-05T15:09:54.286Z,5.30
2022-11-05T15:12:36.520Z,5.12
2022-11-05T15:15:21.413Z,4.27
2022-11-05T15:18:03.084Z,6.85
2022-11-05T15:20:41.187Z,4.78
2022-11-05T15:23:15.928Z,4.97
2022-11-05T15:25:53.828Z,5.10
2022-11-05T15:28:38.140Z,4.78
2022-11-05T15:31:13.155Z,4.53
2022-11-05T15:33:43.011Z,4.18
2022-11-05T15:36:31.836Z,4.40
2022-11-05T15:39:27.947Z,4.75
2022-11-05T15:41:49.305Z,4.22
2022-11-05T15:44:48.147Z,5.47
2022-11-05T15:47:20.090Z,5.00
2022-11-05T15:50:14.970Z,3.80
2022-11-05T15:52:53.341Z,3.05
2022-11-05T15:55:24.928Z,4.43
2022-11-05T15:58:07.500Z,3.90
2022-11-05T16:00:40.355Z,3.87
2022-11-05T16:03:13.340Z,3.80
2022-11-05T16:05:44.429Z,3.92
2022-11-05T16:08:26.789Z,3.35
2022-11-05T16:10:59.366Z,4.18
2022-11-05T16:13:39.912Z,3.80
2022-11-05T16:16:15.916Z,2.92
2022-11-05T16:18:46.010Z,3.78
2022-11-05T16:21:19.872Z,4.80
2022-11-05T16:23:49.005Z,4.40
2022-11-05T16:29:36.194Z,4.47
2022-11-05T16:32:28.519Z,5.30
2022-11-05T16:35:02.862Z,4.82
2022-11-05T16:37:41.169Z,3.97
2022-11-05T16:40:16.510Z,3.53
2022-11-05T16:42:48.614Z,5.90
2022-11-05T16:45:24.531Z,3.55
2022-11-05T16:47:54.253Z,4.15
2022-11-05T16:50:30.617Z,4.57
2022-11-05T16:52:59.141Z,4.97
2022-11-05T16:55:29.455Z,4.07
2022-11-05T16:57:58.333Z,4.95
2022-11-05T17:00:27.093Z,4.05
2022-11-05T17:02:57.467Z,4.37
2022-11-05T17:05:35.299Z,5.53
2022-11-05T17:08:23.854Z,4.70
2022-11-05T17:10:57.077Z,3.97
2022-11-05T17:13:42.532Z,5.07
2022-11-05T17:18:43.799Z,3.62
2022-11-05T17:21:14.521Z,4.00
2022-11-05T17:24:02.366Z,5.30
2022-11-05T17:26:31.840Z,5.12
2022-11-05T17:29:02.610Z,4.45
2022-11-05T17:31:34.234Z,4.87
2022-11-05T17:34:02.634Z,4.82
2022-11-05T17:36:31.329Z,5.87
2022-11-05T17:39:00.545Z,4.18
2022-11-05T17:41:30.492Z,5.57
2022-11-05T17:44:01.231Z,4.45
2022-11-05T17:46:30.084Z,4.97
2022-11-05T17:49:02.236Z,5.68
2022-11-05T17:51:32.812Z,5.95
2022-11-05T17:54:05.249Z,4.75
2022-11-05T17:56:41.696Z,6.32
2022-11-05T17:59:13.684Z,5.55
2022-11-05T18:01:44.068Z,5.70
2022-11-05T18:04:13.486Z,4.97
2022-11-05T18:06:42.192Z,5.37
2022-11-05T18:09:12.990Z,6.53
2022-11-05T18:11:44.375Z,5.90
2022-11-05T18:14:13.871Z,6.03
2022-11-05T18:16:47.976Z,6.35
2022-11-05T18:19:18.497Z,4.87
2022-11-05T18:21:50.046Z,4.65
2022-11-05T18:24:18.513Z,3.97
2022-11-05T18:26:47.297Z,3.22
2022-11-05T18:29:16.914Z,4.28
2022-11-05T18:31:45.778Z,4.30
2022-11-05T18:34:15.023Z,3.83
2022-11-05T18:36:45.966Z,6.72
2022-11-05T18:39:22.379Z,6.00
2022-11-05T18:41:51.828Z,7.20
2022-11-05T18:44:25.255Z,5.70
2022-11-05T18:46:58.983Z,6.03
2022-11-05T18:49:29.208Z,8.20
2022-11-05T18:52:01.771Z,4.87
2022-11-05T18:54:30.261Z,6.53
2022-11-05T18:57:00.917Z,5.90
2022-11-05T18:59:39.909Z,5.50
2022-11-05T19:02:09.447Z,6.18
2022-11-05T19:04:43.981Z,5.70
2022-11-05T19:07:24.009Z,5.20
2022-11-05T19:09:55.377Z,5.97
2022-11-05T19:12:45.556Z,7.10
2022-11-05T19:15:54.076Z,5.30
2022-11-05T19:18:42.885Z,7.10
2022-11-05T19:21:20.731Z,6.95
2022-11-05T19:24:08.618Z,6.80
2022-11-05T19:27:00.817Z,6.20
2022-11-05T19:29:32.513Z,5.05
2022-11-05T19:32:03.189Z,4.65
2022-11-05T19:34:32.792Z,4.93
2022-11-05T19:37:08.620Z,4.40
2022-11-05T19:39:44.846Z,5.07
2022-11-05T19:42:36.679Z,5.82
2022-11-05T19:45:30.206Z,5.50
2022-11-05T19:47:57.434Z,5.40
2022-11-05T19:50:45.833Z,4.97
2022-11-05T19:53:25.912Z,4.40
2022-11-05T19:56:19.940Z,6.10
2022-11-05T19:59:08.698Z,4.85
2022-11-05T20:01:40.407Z,5.80
2022-11-05T20:04:14.461Z,4.70
2022-11-05T20:07:02.800Z,6.30
2022-11-05T20:09:40.108Z,5.68
2022-11-05T20:14:44.313Z,5.80
2022-11-05T20:17:32.558Z,3.95
2022-11-05T20:20:07.360Z,4.82
2022-11-05T20:22:36.956Z,5.43
2022-11-05T20:25:13.719Z,4.32
2022-11-05T20:28:01.296Z,5.28
2022-11-05T20:30:30.026Z,5.10
2022-11-05T20:32:59.584Z,4.55
2022-11-05T20:35:31.114Z,4.70
2022-11-05T20:38:00.992Z,5.30
2022-11-05T20:40:32.793Z,5.60
2022-11-05T20:43:03.737Z,5.32
2022-11-05T20:45:34.472Z,5.93
2022-11-05T20:48:14.854Z,5.22
2022-11-05T20:50:45.564Z,3.70
2022-11-05T20:53:35.892Z,5.50
2022-11-05T20:56:23.842Z,4.47
2022-11-05T20:58:58.835Z,5.32
2022-11-05T21:01:30.635Z,4.55
2022-11-05T21:04:01.019Z,4.80
2022-11-05T21:06:29.725Z,4.18
2022-11-05T21:08:58.466Z,3.62
2022-11-05T21:11:29.930Z,4.85
2022-11-05T21:13:59.994Z,4.82
2022-11-05T21:16:42.038Z,4.12
2022-11-05T21:19:12.823Z,4.80
2022-11-05T21:21:44.258Z,5.28
2022-11-05T21:24:14.400Z,4.65
2022-11-05T21:26:51.183Z,4.28
2022-11-05T21:29:21.784Z,5.47
2022-11-05T21:31:57.540Z,4.82
2022-11-05T21:34:29.710Z,5.28
2022-11-05T21:37:12.857Z,4.50
2022-11-05T21:39:48.510Z,4.82
2022-11-05T21:42:23.284Z,6.43
2022-11-05T21:44:54.018Z,5.47
2022-11-05T21:47:40.735Z,4.45
2022-11-05T21:50:10.613Z,5.13
2022-11-05T21:52:59.994Z,4.50
2022-11-05T21:55:47.858Z,5.00
2022-11-05T21:58:41.841Z,5.30
2022-11-05T22:01:11.206Z,5.25
2022-11-05T22:03:41.154Z,5.60
2022-11-05T22:06:11.027Z,5.50
2022-11-05T22:08:39.297Z,4.85
2022-11-05T22:11:10.631Z,5.05
2022-11-05T22:13:41.512Z,5.30
2022-11-05T22:16:15.296Z,4.60
2022-11-05T22:18:45.043Z,5.20
2022-11-05T22:21:18.568Z,4.57
2022-11-05T22:23:49.339Z,4.05
2022-11-05T22:26:21.737Z,4.10
2022-11-05T22:28:55.095Z,4.68
2022-11-05T22:31:33.129Z,4.95
2022-11-05T22:34:08.092Z,4.70
2022-11-05T22:36:58.699Z,5.10
2022-11-05T22:39:29.475Z,4.70
2022-11-05T22:42:08.684Z,5.00
2022-11-05T22:44:38.461Z,4.85
2022-11-05T22:47:08.620Z,5.47
2022-11-05T22:49:38.776Z,6.47
2022-11-05T22:52:10.364Z,6.25
2022-11-05T22:54:41.868Z,6.65
2022-11-05T22:57:13.781Z,7.00
2022-11-05T23:00:02.560Z,6.43
2022-11-05T23:02:36.348Z,7.72
2022-11-05T23:05:12.560Z,8.50
2022-11-05T23:08:18.768Z,7.75
2022-11-05T23:11:07.912Z,7.07
2022-11-05T23:13:45.215Z,9.48
2022-11-05T23:16:33.557Z,7.03
2022-11-05T23:20:03.427Z,7.40
2022-11-05T23:22:52.496Z,7.20
2022-11-05T23:25:45.418Z,7.77
2022-11-05T23:28:34.319Z,8.77
2022-11-05T23:31:29.176Z,8.30
2022-11-05T23:34:00.215Z,7.28
2022-11-05T23:37:00.643Z,8.82
2022-11-05T23:39:39.801Z,9.15
2022-11-05T23:45:24.361Z,8.95
2022-11-05T23:48:16.741Z,8.00
2022-11-05T23:50:57.372Z,8.20
2022-11-05T23:53:36.717Z,7.53
2022-11-05T23:56:11.000Z,8.02
2022-11-05T23:58:47.951Z,9.00
